createdAt,value
2023-03-02T00:00:57.852Z,67.14
2023-03-02T00:01:57.841Z,67.22
2023-03-02T00:02:57.853Z,67.62
2023-03-02T00:03:57.801Z,68.15
2023-03-02T00:04:57.729Z,68.48
2023-03-02T00:14:57.785Z,65.33
2023-03-02T00:15:57.794Z,66.87
2023-03-02T00:16:57.820Z,62.72
2023-03-02T00:17:57.834Z,64.95
2023-03-02T00:18:57.870Z,63.33
2023-03-02T00:19:57.902Z,65.35
2023-03-02T00:20:57.953Z,66.42
2023-03-02T00:21:57.967Z,62.68
2023-03-02T00:22:57.985Z,64.18
2023-03-02T00:23:58.015Z,61.79
2023-03-02T00:24:58.062Z,63.60
2023-03-02T00:25:58.075Z,64.16
2023-03-02T00:26:58.088Z,59.12
2023-03-02T00:27:58.128Z,63.09
2023-03-02T00:28:58.132Z,62.01
2023-03-02T00:29:58.139Z,58.78
2023-03-02T00:30:58.208Z,63.20
2023-03-02T00:31:58.217Z,64.77
2023-03-02T00:32:58.217Z,63.19
2023-03-02T00:33:58.259Z,59.69
2023-03-02T00:34:58.309Z,60.35
2023-03-02T00:35:58.336Z,64.44
2023-03-02T00:36:58.310Z,60.89
2023-03-02T00:37:58.313Z,62.35
2023-03-02T00:38:59.206Z,60.30
2023-03-02T00:39:58.366Z,62.93
2023-03-02T00:40:58.361Z,60.97
2023-03-02T00:41:58.403Z,59.98
2023-03-02T00:42:58.389Z,62.03
2023-03-02T00:43:58.422Z,60.85
2023-03-02T00:44:58.465Z,59.68
2023-03-02T00:45:58.485Z,61.94
2023-03-02T00:46:58.547Z,59.43
2023-03-02T00:47:58.522Z,61.04
2023-03-02T00:48:58.548Z,64.20
2023-03-02T00:49:58.630Z,61.34
2023-03-02T00:50:58.621Z,62.33
2023-03-02T00:51:58.646Z,59.98
2023-03-02T00:52:58.678Z,60.94
2023-03-02T00:53:58.725Z,58.63
2023-03-02T00:54:58.701Z,59.60
2023-03-02T00:55:58.732Z,59.00
2023-03-02T00:56:58.772Z,58.89
2023-03-02T00:57:58.813Z,57.43
2023-03-02T00:58:58.801Z,57.82
2023-03-02T00:59:58.819Z,59.98
2023-03-02T01:00:58.849Z,57.88
2023-03-02T01:01:58.908Z,59.75
2023-03-02T01:02:59.106Z,54.67
2023-03-02T01:03:58.934Z,57.89
2023-03-02T01:04:59.715Z,55.30
2023-03-02T01:05:59.007Z,54.87
2023-03-02T01:06:59.035Z,57.23
2023-03-02T01:07:59.075Z,58.91
2023-03-02T01:08:59.116Z,58.15
2023-03-02T01:09:59.146Z,58.93
2023-03-02T01:10:59.182Z,56.08
2023-03-02T01:11:59.227Z,59.09
2023-03-02T01:12:59.269Z,56.11
2023-03-02T01:13:59.291Z,56.57
2023-03-02T01:14:59.309Z,56.77
2023-03-02T01:15:59.346Z,56.22
2023-03-02T01:16:59.432Z,56.78
2023-03-02T01:17:59.402Z,54.93
2023-03-02T01:18:59.469Z,55.37
2023-03-02T01:19:59.517Z,54.49
2023-03-02T01:20:59.531Z,56.35
2023-03-02T01:21:59.577Z,55.68
2023-03-02T01:22:59.605Z,54.21
2023-03-02T01:23:59.643Z,55.82
2023-03-02T01:24:59.658Z,54.44
2023-03-02T01:25:59.713Z,53.91
2023-03-02T01:26:59.805Z,54.19
2023-03-02T01:27:59.750Z,52.61
2023-03-02T01:28:59.786Z,54.96
2023-03-02T01:29:59.811Z,55.11
2023-03-02T01:30:59.850Z,55.19
2023-03-02T01:32:00.063Z,54.30
2023-03-02T01:32:59.913Z,54.07
2023-03-02T01:33:59.891Z,51.55
2023-03-02T01:34:59.908Z,53.55
2023-03-02T01:36:00.010Z,54.29
2023-03-02T01:36:59.963Z,51.59
2023-03-02T01:37:59.992Z,52.77
2023-03-02T01:39:00.007Z,53.08
2023-03-02T01:40:00.077Z,53.54
2023-03-02T01:41:00.103Z,52.66
2023-03-02T01:42:00.120Z,52.48
2023-03-02T01:43:00.130Z,54.51
2023-03-02T01:44:00.116Z,51.58
2023-03-02T01:45:00.142Z,49.84
2023-03-02T01:46:00.216Z,52.56
2023-03-02T01:47:00.335Z,52.56
2023-03-02T01:48:00.231Z,49.40
2023-03-02T01:49:00.269Z,51.50
2023-03-02T01:50:00.313Z,50.63
2023-03-02T01:51:00.364Z,51.55
2023-03-02T01:52:00.321Z,51.69
2023-03-02T01:53:00.418Z,52.76
2023-03-02T01:54:00.319Z,50.07
2023-03-02T01:55:00.288Z,50.95
2023-03-02T01:56:00.268Z,49.29
2023-03-02T01:57:00.296Z,50.97
2023-03-02T01:58:00.323Z,49.29
2023-03-02T01:59:00.422Z,50.40
2023-03-02T02:00:00.393Z,48.80
2023-03-02T02:01:00.458Z,50.11
2023-03-02T02:02:00.417Z,49.87
2023-03-02T02:03:00.391Z,48.09
2023-03-02T02:04:00.460Z,50.65
2023-03-02T02:05:00.423Z,49.90
2023-03-02T02:06:00.480Z,47.38
2023-03-02T02:07:00.502Z,48.22
2023-03-02T02:08:00.515Z,47.29
2023-03-02T02:09:00.556Z,47.37
2023-03-02T02:10:00.603Z,46.54
2023-03-02T02:11:00.653Z,47.06
2023-03-02T02:12:00.699Z,46.15
2023-03-02T02:13:00.707Z,48.49
2023-03-02T02:14:00.749Z,48.18
2023-03-02T02:15:01.094Z,49.10
2023-03-02T02:16:00.752Z,49.30
2023-03-02T02:17:01.366Z,49.74
2023-03-02T02:18:00.852Z,49.43
2023-03-02T02:19:00.833Z,52.62
2023-03-02T02:20:00.896Z,50.27
2023-03-02T02:21:00.872Z,48.65
2023-03-02T02:22:00.992Z,49.92
2023-03-02T02:23:00.945Z,50.23
2023-03-02T02:24:00.971Z,49.57
2023-03-02T02:25:01.756Z,47.23
2023-03-02T02:26:01.064Z,47.63
2023-03-02T02:27:01.110Z,48.68
2023-03-02T02:28:01.225Z,51.98
2023-03-02T02:29:01.166Z,47.79
2023-03-02T02:30:01.273Z,49.80
2023-03-02T02:31:01.236Z,50.34
2023-03-02T02:32:01.400Z,51.03
2023-03-02T02:33:01.755Z,47.09
2023-03-02T02:34:01.333Z,48.74
2023-03-02T02:35:01.364Z,47.26
2023-03-02T02:36:01.509Z,50.02
2023-03-02T02:37:01.433Z,48.74
2023-03-02T02:38:01.530Z,48.80
2023-03-02T02:39:01.481Z,47.52
2023-03-02T02:40:02.299Z,48.03
2023-03-02T02:41:01.534Z,49.81
2023-03-02T02:42:01.568Z,46.75
2023-03-02T02:43:01.628Z,48.73
2023-03-02T02:44:01.648Z,49.18
2023-03-02T02:45:01.671Z,50.09
2023-03-02T02:46:01.768Z,51.15
2023-03-02T02:47:01.745Z,49.07
2023-03-02T02:48:01.773Z,47.57
2023-03-02T02:49:01.817Z,48.81
2023-03-02T02:50:01.850Z,49.91
2023-03-02T02:51:01.874Z,47.18
2023-03-02T02:52:01.903Z,46.60
2023-03-02T02:53:01.939Z,46.69
2023-03-02T02:54:01.980Z,45.62
2023-03-02T02:55:02.021Z,45.89
2023-03-02T02:56:02.044Z,47.05
2023-03-02T02:57:02.069Z,46.77
2023-03-02T02:58:02.103Z,47.71
2023-03-02T02:59:02.188Z,47.68
2023-03-02T03:00:02.206Z,45.99
2023-03-02T03:01:02.265Z,48.55
2023-03-02T03:02:02.220Z,42.71
2023-03-02T03:03:02.254Z,44.39
2023-03-02T03:04:02.502Z,41.50
2023-03-02T03:05:02.345Z,43.14
2023-03-02T03:06:02.351Z,43.11
2023-03-02T03:07:02.387Z,46.51
2023-03-02T03:08:02.407Z,44.28
2023-03-02T03:09:02.460Z,45.47
2023-03-02T03:10:02.500Z,42.17
2023-03-02T03:11:02.508Z,45.73
2023-03-02T03:12:02.537Z,43.14
2023-03-02T03:13:02.567Z,43.18
2023-03-02T03:14:02.598Z,45.92
2023-03-02T03:15:02.623Z,45.28
2023-03-02T03:16:02.656Z,46.22
2023-03-02T03:17:02.857Z,45.24
2023-03-02T03:18:02.789Z,43.79
2023-03-02T03:19:02.748Z,45.38
2023-03-02T03:20:02.791Z,43.95
2023-03-02T03:21:02.806Z,44.45
2023-03-02T03:22:02.859Z,41.29
2023-03-02T03:23:02.922Z,43.53
2023-03-02T03:24:02.893Z,40.42
2023-03-02T03:25:02.975Z,42.40
2023-03-02T03:26:02.952Z,42.37
2023-03-02T03:27:02.976Z,40.83
2023-03-02T03:28:03.001Z,41.44
2023-03-02T03:29:03.114Z,42.00
2023-03-02T03:30:03.060Z,41.59
2023-03-02T03:31:03.220Z,40.80
2023-03-02T03:32:03.222Z,42.92
2023-03-02T03:33:03.144Z,42.74
2023-03-02T03:34:03.174Z,41.24
2023-03-02T03:35:03.197Z,38.77
2023-03-02T03:36:03.287Z,40.09
2023-03-02T03:37:03.298Z,40.32
2023-03-02T03:38:03.290Z,40.59
2023-03-02T03:39:03.348Z,41.21
2023-03-02T03:40:03.357Z,41.37
2023-03-02T03:41:03.381Z,42.67
2023-03-02T03:42:03.414Z,42.09
2023-03-02T03:43:03.493Z,39.23
2023-03-02T03:44:03.476Z,41.02
2023-03-02T03:45:03.527Z,39.49
2023-03-02T03:46:03.604Z,41.97
2023-03-02T03:47:03.616Z,39.63
2023-03-02T03:48:03.618Z,41.17
2023-03-02T03:49:03.660Z,37.39
2023-03-02T03:50:03.673Z,40.91
2023-03-02T03:51:04.262Z,39.17
2023-03-02T03:52:03.825Z,37.47
2023-03-02T03:53:04.042Z,39.55
2023-03-02T03:54:03.810Z,37.14
2023-03-02T03:55:03.842Z,41.13
2023-03-02T03:56:04.772Z,39.08
2023-03-02T03:57:03.881Z,39.12
2023-03-02T03:58:03.919Z,39.89
2023-03-02T03:59:03.939Z,38.39
2023-03-02T04:00:03.974Z,37.21
2023-03-02T04:01:04.112Z,37.90
2023-03-02T04:02:04.039Z,38.35
2023-03-02T04:03:04.134Z,35.53
2023-03-02T04:04:04.083Z,35.93
2023-03-02T04:05:04.112Z,34.61
2023-03-02T04:06:04.146Z,37.73
2023-03-02T04:07:04.178Z,36.72
2023-03-02T04:08:04.213Z,36.51
2023-03-02T04:09:04.242Z,36.40
2023-03-02T04:10:04.291Z,35.99
2023-03-02T04:11:04.313Z,33.69
2023-03-02T04:12:04.351Z,35.89
2023-03-02T04:13:04.372Z,38.79
2023-03-02T04:14:04.416Z,37.13
2023-03-02T04:15:04.440Z,36.11
2023-03-02T05:28:07.814Z,27.95
2023-03-02T05:38:07.817Z,28.82
2023-03-02T05:41:07.821Z,26.44
2023-03-02T05:52:07.729Z,27.22
2023-03-02T05:53:07.760Z,27.12
2023-03-02T05:54:07.857Z,27.54
2023-03-02T05:55:07.828Z,25.80
2023-03-02T05:56:07.870Z,29.66
2023-03-02T05:57:07.895Z,26.86
2023-03-02T05:58:07.944Z,26.53
2023-03-02T05:59:07.953Z,27.48
2023-03-02T06:00:07.985Z,30.25
2023-03-02T06:01:08.025Z,26.24
2023-03-02T06:02:08.145Z,27.24
2023-03-02T06:03:08.183Z,27.44
2023-03-02T06:04:08.118Z,26.00
2023-03-02T06:05:08.146Z,26.66
2023-03-02T06:06:08.188Z,28.10
2023-03-02T06:07:08.215Z,25.00
2023-03-02T06:08:08.269Z,29.09
2023-03-02T06:09:08.284Z,29.51
2023-03-02T06:10:08.326Z,27.76
2023-03-02T06:11:08.347Z,27.30
2023-03-02T06:12:08.391Z,27.98
2023-03-02T06:13:08.411Z,26.27
2023-03-02T06:14:08.448Z,29.07
2023-03-02T06:15:08.494Z,29.68
2023-03-02T06:16:08.569Z,27.54
2023-03-02T06:17:08.561Z,30.93
2023-03-02T06:18:08.596Z,25.95
2023-03-02T06:19:08.624Z,27.72
2023-03-02T06:20:08.659Z,28.22
2023-03-02T06:21:08.702Z,26.86
2023-03-02T06:22:08.722Z,28.30
2023-03-02T06:23:08.740Z,27.62
2023-03-02T06:24:08.774Z,25.68
2023-03-02T06:25:08.800Z,30.22
2023-03-02T06:26:08.839Z,29.98
2023-03-02T06:30:08.952Z,45.59
2023-03-02T06:32:09.021Z,56.25
2023-03-02T06:37:08.878Z,89.93
2023-03-02T06:38:08.850Z,101.80
2023-03-02T06:39:08.817Z,104.90
2023-03-02T06:40:08.817Z,106.02
2023-03-02T06:41:08.753Z,111.91
2023-03-02T06:42:08.760Z,119.55
2023-03-02T06:43:08.679Z,119.89
2023-03-02T06:44:08.625Z,123.85
2023-03-02T06:45:09.343Z,128.45
2023-03-02T06:46:08.785Z,134.35
2023-03-02T06:47:08.636Z,140.57
2023-03-02T06:48:09.336Z,145.34
2023-03-02T06:49:08.673Z,157.66
2023-03-02T06:50:08.684Z,160.69
2023-03-02T06:51:08.724Z,168.03
2023-03-02T06:52:08.734Z,170.84
2023-03-02T06:53:08.727Z,175.99
2023-03-02T06:54:08.752Z,182.70
2023-03-02T06:55:08.780Z,192.46
2023-03-02T06:56:08.780Z,199.04
2023-03-02T06:57:08.798Z,206.86
2023-03-02T06:58:08.806Z,209.89
2023-03-02T06:59:08.814Z,215.17
2023-03-02T07:00:08.838Z,223.50
2023-03-02T07:01:08.911Z,226.40
2023-03-02T07:02:08.840Z,240.01
2023-03-02T07:03:08.846Z,240.75
2023-03-02T07:04:08.856Z,243.57
2023-03-02T07:05:08.893Z,250.00
2023-03-02T07:06:08.915Z,248.67
2023-03-02T07:07:08.968Z,246.15
2023-03-02T07:08:08.842Z,247.52
2023-03-02T07:09:08.854Z,248.85
2023-03-02T07:10:08.871Z,250.00
2023-03-02T07:11:08.859Z,250.00
2023-03-02T07:12:08.854Z,249.96
2023-03-02T07:13:09.424Z,249.97
2023-03-02T07:14:08.844Z,248.68
2023-03-02T07:15:08.820Z,249.42
2023-03-02T07:16:08.824Z,249.98
2023-03-02T07:17:08.907Z,248.86
2023-03-02T07:18:08.793Z,249.86
2023-03-02T07:19:08.782Z,249.42
2023-03-02T07:20:08.771Z,249.41
2023-03-02T07:21:08.751Z,246.32
2023-03-02T07:22:08.762Z,250.00
2023-03-02T07:23:08.924Z,247.27
2023-03-02T07:24:08.727Z,242.42
2023-03-02T07:25:08.716Z,240.41
2023-03-02T07:26:08.817Z,248.94
2023-03-02T07:27:08.706Z,245.99
2023-03-02T07:28:08.681Z,246.09
2023-03-02T07:29:08.673Z,247.97
2023-03-02T07:30:08.653Z,249.36
2023-03-02T07:31:08.705Z,248.62
2023-03-02T07:32:11.355Z,249.45
2023-03-02T07:33:08.571Z,247.14
2023-03-02T07:34:08.506Z,250.00
2023-03-02T07:35:08.480Z,249.23
2023-03-02T07:36:08.487Z,249.52
2023-03-02T07:37:08.352Z,250.00
2023-03-02T07:38:08.283Z,249.94
2023-03-02T07:39:08.237Z,249.74
2023-03-02T07:40:08.181Z,249.93
2023-03-02T07:41:08.216Z,249.06
2023-03-02T07:42:08.076Z,250.00
2023-03-02T07:43:08.026Z,249.65
2023-03-02T07:44:07.979Z,248.79
2023-03-02T07:45:07.929Z,250.31
2023-03-02T07:46:07.930Z,250.00
2023-03-02T07:47:07.834Z,250.00
2023-03-02T07:48:07.770Z,248.02
2023-03-02T07:49:07.723Z,248.99
2023-03-02T10:48:00.798Z,177.61
2023-03-02T10:49:00.747Z,178.71
2023-03-02T10:50:00.687Z,176.67
2023-03-02T10:51:00.791Z,176.69
2023-03-02T10:52:00.595Z,176.67
2023-03-02T10:53:02.010Z,177.09
2023-03-02T10:54:00.468Z,177.09
2023-03-02T10:55:00.429Z,177.18
2023-03-02T10:56:00.433Z,175.83
2023-03-02T10:57:00.318Z,175.17
2023-03-02T10:58:00.261Z,174.68
2023-03-02T10:59:00.234Z,173.40
2023-03-02T11:00:00.229Z,173.73
2023-03-02T11:01:00.132Z,173.91
2023-03-02T11:02:00.124Z,174.48
2023-03-02T11:02:59.967Z,173.30
2023-03-02T11:03:59.967Z,172.29
2023-03-02T11:04:59.914Z,171.69
2023-03-02T11:05:59.793Z,172.19
2023-03-02T11:06:59.760Z,170.55
2023-03-02T11:07:59.704Z,169.86
2023-03-02T11:08:59.651Z,170.99
2023-03-02T11:09:59.600Z,170.59
2023-03-02T11:11:00.997Z,170.60
2023-03-02T11:11:59.548Z,170.71
2023-03-02T11:12:59.429Z,169.12
2023-03-02T11:13:59.362Z,167.98
2023-03-02T11:14:59.323Z,168.20
2023-03-02T11:15:59.303Z,168.69
2023-03-02T11:16:59.597Z,168.31
2023-03-02T11:17:59.158Z,166.43
2023-03-02T11:18:59.169Z,167.29
2023-03-02T11:19:59.045Z,167.71
2023-03-02T11:20:58.982Z,165.51
2023-03-02T11:21:58.961Z,165.09
2023-03-02T11:22:58.872Z,165.49
2023-03-02T11:23:58.826Z,164.61
2023-03-02T11:24:58.762Z,165.16
2023-03-02T11:25:58.751Z,164.67
2023-03-02T11:26:58.707Z,163.14
2023-03-02T11:27:58.680Z,163.48
2023-03-02T11:28:58.655Z,163.36
2023-03-02T11:29:58.603Z,162.89
2023-03-02T11:30:58.593Z,162.63
2023-03-02T11:31:58.689Z,163.18
2023-03-02T11:32:58.460Z,162.81
2023-03-02T11:34:04.770Z,163.25
2023-03-02T11:34:59.315Z,163.31
2023-03-02T11:35:58.310Z,163.16
2023-03-02T11:36:58.260Z,159.87
2023-03-02T11:37:58.113Z,161.69
2023-03-02T11:38:58.044Z,162.91
2023-03-02T11:39:57.986Z,160.32
2023-03-02T11:40:57.924Z,159.44
2023-03-02T11:41:57.901Z,159.38
2023-03-02T11:42:57.789Z,160.06
2023-03-02T11:43:57.714Z,158.30
2023-03-02T13:37:53.183Z,127.17
2023-03-02T13:38:53.120Z,127.84
2023-03-02T13:39:53.122Z,126.01
2023-03-02T13:40:53.103Z,125.20
2023-03-02T13:41:53.083Z,125.35
2023-03-02T13:42:53.069Z,125.37
2023-03-02T13:43:53.058Z,126.63
2023-03-02T13:44:53.056Z,125.55
2023-03-02T13:45:53.135Z,124.76
2023-03-02T13:46:53.041Z,124.88
2023-03-02T13:47:53.032Z,124.94
2023-03-02T13:49:03.940Z,124.00
2023-03-02T13:49:53.950Z,124.12
2023-03-02T13:50:52.863Z,124.23
2023-03-02T13:51:52.779Z,124.27
2023-03-02T13:52:52.702Z,124.85
2023-03-02T13:53:52.649Z,124.59
2023-03-02T13:54:52.530Z,123.42
2023-03-02T13:55:52.694Z,124.28
2023-03-02T13:56:52.381Z,124.54
2023-03-02T13:57:52.302Z,122.79
2023-03-02T13:58:52.237Z,122.81
2023-03-02T13:59:52.214Z,122.82
2023-03-02T14:00:52.174Z,124.31
2023-03-02T14:01:52.143Z,121.47
2023-03-02T14:02:52.096Z,121.39
2023-03-02T14:03:52.071Z,121.96
2023-03-02T14:04:53.093Z,121.83
2023-03-02T14:05:51.985Z,122.29
2023-03-02T14:06:51.873Z,122.42
2023-03-02T14:07:51.795Z,122.93
2023-03-02T14:08:51.703Z,123.24
2023-03-02T14:09:51.648Z,123.97
2023-03-02T14:10:51.578Z,124.01
2023-03-02T14:11:51.539Z,123.27
2023-03-02T14:12:51.473Z,123.10
2023-03-02T14:13:51.389Z,122.59
2023-03-02T14:14:51.392Z,122.30
2023-03-02T14:15:51.427Z,120.90
2023-03-02T14:16:51.203Z,121.48
2023-03-02T14:17:51.148Z,119.02
2023-03-02T14:18:51.138Z,119.94
2023-03-02T14:19:51.052Z,119.14
2023-03-02T14:20:51.060Z,119.89
2023-03-02T14:21:50.993Z,119.03
2023-03-02T14:22:50.958Z,117.91
2023-03-02T14:23:50.950Z,117.29
2023-03-02T14:24:50.907Z,117.92
2023-03-02T14:25:50.899Z,118.96
2023-03-02T14:26:50.889Z,119.10
2023-03-02T14:27:50.854Z,116.56
2023-03-02T14:28:59.906Z,117.45
2023-03-02T14:29:51.772Z,117.58
2023-03-02T14:30:50.766Z,117.79
2023-03-02T14:31:51.509Z,117.48
2023-03-02T14:32:50.551Z,117.97
2023-03-02T14:33:50.484Z,118.86
2023-03-02T14:34:50.415Z,117.87
2023-03-02T14:35:50.371Z,116.95
2023-03-02T14:36:50.267Z,116.16
2023-03-02T14:37:50.191Z,117.89
2023-03-02T14:38:50.109Z,117.07
2023-03-02T14:39:50.029Z,117.15
2023-03-02T14:40:50.074Z,116.40
2023-03-02T14:41:53.888Z,116.88
2023-03-02T14:42:49.798Z,116.99
2023-03-02T14:43:49.732Z,117.08
2023-03-02T14:44:49.660Z,116.10
2023-03-02T14:45:49.575Z,117.46
2023-03-02T14:46:49.550Z,116.02
2023-03-02T14:47:49.449Z,116.12
2023-03-02T14:48:49.349Z,115.28
2023-03-02T14:49:49.459Z,115.71
2023-03-02T14:50:49.210Z,114.94
2023-03-02T14:51:49.196Z,115.38
2023-03-02T14:53:48.997Z,114.94
2023-03-02T14:54:48.954Z,113.58
2023-03-02T14:55:49.012Z,116.16
2023-03-02T14:56:50.463Z,116.83
2023-03-02T14:57:48.713Z,113.84
2023-03-02T14:58:48.649Z,113.95
2023-03-02T14:59:48.582Z,116.39
2023-03-02T15:00:49.025Z,116.17
2023-03-02T15:10:47.900Z,116.01
2023-03-02T15:12:47.830Z,115.30
2023-03-02T15:13:47.819Z,113.97
2023-03-02T15:14:47.798Z,117.11
2023-03-02T15:15:47.799Z,116.03
2023-03-02T15:16:47.771Z,116.68
2023-03-02T15:17:47.845Z,115.58
2023-03-02T15:18:47.747Z,117.79
2023-03-02T15:19:47.821Z,115.73
2023-03-02T15:20:47.728Z,117.64
2023-03-02T15:21:47.714Z,115.57
2023-03-02T15:32:47.722Z,117.52
2023-03-02T15:33:47.732Z,115.48
2023-03-02T15:35:47.767Z,117.09
2023-03-02T15:36:47.725Z,116.44
2023-03-02T15:37:47.734Z,114.81
2023-03-02T15:38:47.728Z,115.39
2023-03-02T15:39:47.712Z,116.10
2023-03-02T20:13:41.420Z,77.22
2023-03-02T20:14:41.383Z,73.95
2023-03-02T20:15:41.423Z,77.14
2023-03-02T20:16:41.400Z,74.18
2023-03-02T20:17:41.264Z,73.04
2023-03-02T20:18:41.262Z,78.72
2023-03-02T20:20:41.186Z,80.27
2023-03-02T20:21:41.115Z,78.01
2023-03-02T20:22:41.079Z,74.29
2023-03-02T20:23:41.053Z,75.58
2023-03-02T20:24:41.048Z,75.41
2023-03-02T20:25:40.986Z,76.98
2023-03-02T20:26:40.984Z,79.23
2023-03-02T20:27:40.908Z,73.06
2023-03-02T20:28:40.872Z,72.03
2023-03-02T20:29:40.840Z,74.25
2023-03-02T20:30:40.831Z,75.45
2023-03-02T20:31:40.772Z,79.09
2023-03-02T20:32:40.745Z,72.25
2023-03-02T20:33:40.705Z,77.57
2023-03-02T20:34:40.672Z,75.15
2023-03-02T20:36:40.605Z,74.82
2023-03-02T20:37:40.576Z,77.77
2023-03-02T20:38:40.526Z,74.10
2023-03-02T20:39:40.492Z,71.78
2023-03-02T21:20:39.290Z,68.83
2023-03-02T21:36:38.890Z,68.25
2023-03-02T21:37:38.932Z,71.13
2023-03-02T21:38:38.853Z,72.93
2023-03-02T21:39:38.830Z,68.00
2023-03-02T21:40:38.834Z,69.93
2023-03-02T21:42:38.770Z,66.66
2023-03-02T21:43:38.762Z,69.39
2023-03-02T21:44:38.734Z,68.27
2023-03-02T21:45:38.717Z,69.82
2023-03-02T21:46:38.745Z,70.77
2023-03-02T21:47:38.659Z,68.42
2023-03-02T21:48:38.643Z,65.05
2023-03-02T21:49:38.624Z,67.51
2023-03-02T21:50:38.596Z,66.28
2023-03-02T21:51:38.582Z,66.15
2023-03-02T21:52:38.561Z,73.73
2023-03-02T21:53:38.545Z,65.79
2023-03-02T21:54:38.517Z,57.33
2023-03-02T21:55:38.506Z,70.15
2023-03-02T21:56:38.466Z,64.39
2023-03-02T21:57:38.436Z,64.90
2023-03-02T21:58:38.431Z,64.55
2023-03-02T21:59:38.672Z,60.58
2023-03-02T22:00:38.380Z,68.37
2023-03-02T22:01:38.459Z,63.46
2023-03-02T22:02:38.337Z,60.54
2023-03-02T22:03:38.702Z,63.35
2023-03-02T22:04:39.158Z,63.35
2023-03-02T22:05:38.266Z,65.87
2023-03-02T22:06:38.258Z,66.88
2023-03-02T22:07:38.233Z,64.93
2023-03-02T22:08:38.214Z,63.42
2023-03-02T22:09:38.224Z,61.37
2023-03-02T22:10:38.181Z,68.54
2023-03-02T22:11:38.171Z,58.61
2023-03-02T22:12:38.152Z,61.62
2023-03-02T22:13:38.144Z,68.93
2023-03-02T22:14:38.153Z,61.96
2023-03-02T22:15:38.114Z,65.02
2023-03-02T22:16:38.118Z,62.98
2023-03-02T22:17:38.078Z,59.28
2023-03-02T22:18:38.063Z,66.86
2023-03-02T22:19:38.054Z,65.31
2023-03-02T22:20:39.999Z,63.79
2023-03-02T22:21:38.034Z,67.97
2023-03-02T22:22:38.010Z,65.86
2023-03-02T22:23:38.002Z,64.53
2023-03-02T22:24:37.995Z,65.44
2023-03-02T22:25:37.974Z,61.50
2023-03-02T22:26:37.961Z,60.78
2023-03-02T22:27:37.944Z,60.56
2023-03-02T22:28:37.929Z,60.63
2023-03-02T22:29:37.942Z,58.64
2023-03-02T22:30:37.915Z,65.41
2023-03-02T22:31:38.029Z,59.19
2023-03-02T22:32:37.888Z,61.09
2023-03-02T22:33:37.877Z,56.01
2023-03-02T22:34:37.870Z,66.67
2023-03-02T22:35:37.899Z,62.75
2023-03-02T22:36:37.852Z,56.63
2023-03-02T22:37:37.837Z,58.19
2023-03-02T22:38:37.818Z,54.19
2023-03-02T22:39:39.398Z,60.06
2023-03-02T22:40:38.015Z,57.96
2023-03-02T22:41:37.993Z,64.35
2023-03-02T22:42:37.988Z,60.75
2023-03-02T22:43:37.957Z,58.95
2023-03-02T22:44:37.986Z,61.11
2023-03-02T22:45:37.953Z,59.55
2023-03-02T22:46:38.050Z,55.44
2023-03-02T22:47:37.917Z,62.41
2023-03-02T22:48:37.911Z,58.48
2023-03-02T22:49:37.897Z,59.28
2023-03-02T22:50:37.889Z,55.44
2023-03-02T22:51:37.876Z,55.33
2023-03-02T22:52:37.873Z,62.94
2023-03-02T22:53:37.859Z,57.84
2023-03-02T22:54:37.856Z,63.08
2023-03-02T22:55:37.843Z,59.19
2023-03-02T22:56:37.905Z,57.49
2023-03-02T22:57:37.867Z,55.86
2023-03-02T22:58:37.796Z,54.24
2023-03-02T22:59:37.794Z,59.68
2023-03-02T23:00:37.801Z,53.35
2023-03-02T23:01:38.684Z,59.71
2023-03-02T23:02:37.757Z,51.36
2023-03-02T23:03:37.744Z,60.78
2023-03-02T23:04:37.758Z,55.78
2023-03-02T23:05:37.717Z,55.36
2023-03-02T23:09:37.747Z,59.10
2023-03-02T23:12:38.193Z,55.05
2023-03-02T23:19:38.202Z,53.52
2023-03-02T23:42:38.273Z,49.80
